Time;durP1;ratioP1;P1;durP2;ratioP2;P2;SDS_P1;SDS_P2;PMS_P1;PMS_P2;Temp;Humidity;BMP_temperature;BMP_pressure;BME280_temperature;BME280_humidity;BME280_pressure;Samples;Min_cycle;Max_cycle;Signal;HPM_P1;HPM_P2
2023/08/22 00:00:56;;;;;;;16.73;14.93;;;26.20;99.90;;;;;;5094921;28;20043;-54
2023/08/22 00:03:21;;;;;;;17.02;14.45;;;26.20;99.90;;;;;;5094705;28;20417;-56
2023/08/22 00:05:47;;;;;;;21.95;15.23;;;26.20;99.90;;;;;;5103560;28;20026;-56
2023/08/22 00:08:13;;;;;;;18.13;13.55;;;26.10;99.90;;;;;;5095786;28;20088;-53
2023/08/22 00:10:39;;;;;;;17.42;14.57;;;26.00;99.90;;;;;;5115306;28;20038;-56
2023/08/22 00:13:04;;;;;;;17.58;15.70;;;26.00;99.90;;;;;;5114488;28;20467;-53
2023/08/22 00:15:31;;;;;;;21.58;14.23;;;26.00;99.90;;;;;;5095502;28;20035;-54
2023/08/22 00:17:56;;;;;;;19.38;14.63;;;25.80;99.90;;;;;;5115220;28;20133;-54
2023/08/22 00:20:23;;;;;;;15.73;14.02;;;25.80;99.90;;;;;;5114586;28;20522;-55
2023/08/22 00:22:49;;;;;;;18.13;14.63;;;25.80;99.90;;;;;;5114593;28;20032;-56
2023/08/22 00:25:15;;;;;;;18.40;14.45;;;25.80;99.90;;;;;;5095674;28;20042;-54
2023/08/22 00:27:40;;;;;;;17.92;14.32;;;25.70;99.90;;;;;;5078713;28;20043;-55
2023/08/22 00:30:07;;;;;;;14.65;13.00;;;25.60;99.90;;;;;;5095633;28;20398;-55
2023/08/22 00:32:35;;;;;;;16.13;13.88;;;25.60;99.90;;;;;;5114349;28;20055;-55
2023/08/22 00:35:01;;;;;;;19.52;13.98;;;25.60;99.90;;;;;;5113781;28;20038;-57
2023/08/22 00:37:27;;;;;;;16.83;14.73;;;25.60;99.90;;;;;;5114179;28;20459;-56
2023/08/22 00:39:54;;;;;;;16.27;14.32;;;25.60;99.90;;;;;;5108848;28;20040;-55
2023/08/22 00:42:19;;;;;;;19.50;15.52;;;25.70;99.90;;;;;;5095515;28;20507;-56
2023/08/22 00:44:45;;;;;;;17.65;15.63;;;25.60;99.90;;;;;;5094217;28;20048;-56
2023/08/22 00:47:11;;;;;;;21.77;16.33;;;25.60;99.90;;;;;;5093822;28;20023;-56
2023/08/22 00:49:38;;;;;;;18.50;15.90;;;25.50;99.90;;;;;;5093803;28;20048;-54
2023/08/22 00:52:04;;;;;;;18.60;16.25;;;25.50;99.90;;;;;;5093691;28;20052;-55
2023/08/22 00:54:31;;;;;;;20.98;15.85;;;25.40;99.90;;;;;;5091245;28;20085;-55
2023/08/22 00:56:57;;;;;;;20.60;15.75;;;25.40;99.90;;;;;;5094070;28;20035;-55
2023/08/22 00:59:26;;;;;;;18.67;15.30;;;25.50;99.90;;;;;;5093418;28;20036;-55
2023/08/22 01:01:52;;;;;;;17.52;14.48;;;25.50;99.90;;;;;;5091719;28;20093;-54
2023/08/22 01:04:19;;;;;;;16.00;13.82;;;25.40;99.90;;;;;;5093565;28;20020;-56
2023/08/22 01:06:54;;;;;;;17.35;14.30;;;25.40;99.90;;;;;;5093416;28;20510;-54
2023/08/22 01:09:27;;;;;;;15.13;13.57;;;25.40;99.90;;;;;;5093353;28;20471;-55
2023/08/22 01:12:03;;;;;;;15.93;14.27;;;25.30;99.90;;;;;;5093667;28;20077;-56
2023/08/22 01:14:32;;;;;;;14.77;13.27;;;25.30;99.90;;;;;;5093276;28;20044;-57
2023/08/22 01:16:59;;;;;;;20.60;14.20;;;25.30;99.90;;;;;;5093263;28;20052;-56
2023/08/22 01:19:25;;;;;;;18.25;14.55;;;25.30;99.90;;;;;;5093619;28;20028;-54
2023/08/22 01:21:52;;;;;;;17.63;15.13;;;25.30;99.90;;;;;;5091276;28;20487;-55
2023/08/22 01:24:19;;;;;;;15.75;14.15;;;25.30;99.90;;;;;;5093229;28;20084;-53
2023/08/22 01:26:46;;;;;;;22.58;12.50;;;25.30;99.90;;;;;;5093095;28;20103;-56
2023/08/22 01:29:18;;;;;;;16.95;13.45;;;25.20;99.90;;;;;;5091316;28;20040;-54
2023/08/22 01:32:00;;;;;;;15.15;13.70;;;25.20;99.90;;;;;;5093706;28;20494;-55
2023/08/22 01:34:30;;;;;;;15.00;12.88;;;25.30;99.90;;;;;;5093025;28;20028;-57
2023/08/22 01:36:58;;;;;;;18.13;14.55;;;25.20;99.90;;;;;;5090872;28;20087;-54
2023/08/22 01:39:27;;;;;;;16.10;14.32;;;25.10;99.90;;;;;;5090726;28;20081;-55
2023/08/22 01:41:55;;;;;;;17.35;15.38;;;25.10;99.90;;;;;;5090776;28;20081;-53
2023/08/22 01:44:21;;;;;;;18.73;14.88;;;25.10;99.90;;;;;;5057614;28;20032;-54
2023/08/22 01:46:47;;;;;;;23.10;15.85;;;25.20;99.90;;;;;;5090778;28;20533;-55
2023/08/22 01:49:12;;;;;;;17.73;14.65;;;25.10;99.90;;;;;;5090668;28;20407;-54
2023/08/22 01:51:38;;;;;;;16.77;15.07;;;25.20;99.90;;;;;;5090751;28;20028;-56
2023/08/22 01:54:04;;;;;;;17.25;15.50;;;;;;;;;;5090859;28;20032;-55
2023/08/22 01:56:30;;;;;;;18.52;14.20;;;25.10;99.90;;;;;;5057420;28;20044;-55
2023/08/22 01:58:56;;;;;;;15.00;13.40;;;25.20;99.90;;;;;;5090753;28;20040;-56
2023/08/22 02:01:23;;;;;;;16.95;15.23;;;25.20;99.90;;;;;;5090703;28;20036;-53
2023/08/22 02:03:49;;;;;;;17.10;15.30;;;25.10;99.90;;;;;;5090825;28;20028;-55
2023/08/22 02:06:15;;;;;;;17.33;14.77;;;25.10;99.90;;;;;;5090624;28;20020;-55
2023/08/22 02:08:41;;;;;;;16.10;14.18;;;25.10;99.90;;;;;;5090735;28;20036;-53
2023/08/22 02:11:07;;;;;;;16.23;14.43;;;25.00;99.90;;;;;;5057020;28;20043;-54
2023/08/22 02:13:33;;;;;;;15.63;14.00;;;24.80;99.90;;;;;;5090963;28;20032;-53
2023/08/22 02:16:00;;;;;;;18.27;15.38;;;24.80;99.90;;;;;;5092768;28;20040;-55
2023/08/22 02:18:26;;;;;;;15.70;14.07;;;24.80;99.90;;;;;;5092731;28;20085;-53
2023/08/22 02:20:55;;;;;;;17.48;14.93;;;24.80;99.90;;;;;;5092984;28;20451;-53
2023/08/22 02:23:21;;;;;;;16.17;14.43;;;24.80;99.90;;;;;;5092688;28;20093;-55
2023/08/22 02:25:47;;;;;;;17.23;13.75;;;24.70;99.90;;;;;;5057111;28;20033;-55
2023/08/22 02:28:13;;;;;;;15.82;14.43;;;24.70;99.90;;;;;;5073843;28;20029;-55
2023/08/22 02:30:39;;;;;;;15.15;13.27;;;24.70;99.90;;;;;;5073748;28;20032;-53
2023/08/22 02:33:05;;;;;;;16.65;14.45;;;24.60;99.90;;;;;;5092993;28;20107;-53
2023/08/22 02:35:31;;;;;;;16.30;13.75;;;24.60;99.90;;;;;;5092555;28;20107;-53
2023/08/22 02:37:57;;;;;;;15.35;13.82;;;24.60;99.90;;;;;;5095380;28;20103;-54
2023/08/22 02:40:23;;;;;;;15.93;13.57;;;24.60;99.90;;;;;;5095990;28;20058;-56
2023/08/22 02:42:49;;;;;;;17.20;14.23;;;24.60;99.90;;;;;;5096444;28;20519;-54
2023/08/22 02:45:15;;;;;;;17.02;14.93;;;24.60;99.90;;;;;;5095870;28;20112;-56
2023/08/22 02:47:41;;;;;;;16.70;14.77;;;24.60;99.90;;;;;;5095820;28;20040;-56
2023/08/22 02:50:08;;;;;;;17.38;15.02;;;24.60;99.90;;;;;;5102828;28;20035;-55
2023/08/22 02:52:33;;;;;;;17.25;15.50;;;24.50;99.90;;;;;;5116314;28;20028;-55
2023/08/22 02:54:59;;;;;;;18.05;14.95;;;24.50;99.90;;;;;;5116328;28;20165;-55
2023/08/22 02:57:25;;;;;;;19.98;16.58;;;24.50;99.90;;;;;;5116223;28;20364;-55
2023/08/22 02:59:51;;;;;;;17.48;15.77;;;24.50;99.90;;;;;;5097259;28;20047;-52
2023/08/22 03:02:16;;;;;;;16.20;14.70;;;24.40;99.90;;;;;;5116037;28;20028;-54
2023/08/22 03:04:44;;;;;;;17.48;15.35;;;24.50;99.90;;;;;;5116620;28;20157;-55
2023/08/22 03:07:10;;;;;;;17.88;15.40;;;24.40;99.90;;;;;;5115949;28;20030;-55
2023/08/22 03:09:39;;;;;;;20.20;14.75;;;24.40;99.90;;;;;;5116144;28;20027;-53
2023/08/22 03:12:05;;;;;;;18.33;15.43;;;24.30;99.90;;;;;;5116004;28;20356;-55
2023/08/22 03:14:32;;;;;;;17.80;15.68;;;;;;;;;;5096838;28;20096;-53
2023/08/22 03:16:57;;;;;;;16.27;14.07;;;24.30;99.90;;;;;;5116233;28;20036;-53
2023/08/22 03:19:23;;;;;;;17.73;14.75;;;24.40;99.90;;;;;;5115640;28;20031;-56
2023/08/22 03:21:49;;;;;;;17.83;16.02;;;;;;;;;;5097081;28;20126;-52
2023/08/22 03:24:15;;;;;;;17.98;15.52;;;;;;;;;;5115610;28;20031;-52
2023/08/22 03:26:41;;;;;;;16.33;14.48;;;;;;;;;;5115941;28;20031;-55
2023/08/22 03:29:07;;;;;;;18.10;16.13;;;;;;;;;;5115775;27;20090;-52
2023/08/22 03:31:34;;;;;;;16.60;14.65;;;;;;;;;;5115587;28;20087;-54
2023/08/22 03:34:00;;;;;;;16.83;15.10;;;;;;;;;;5115627;28;20031;-54
2023/08/22 03:36:26;;;;;;;21.70;15.70;;;;;;;;;;5115338;28;20024;-53
2023/08/22 03:38:52;;;;;;;18.35;15.70;;;;;;;;;;5115473;28;20055;-53
2023/08/22 03:41:18;;;;;;;18.52;15.73;;;;;;;;;;5115677;28;20031;-52
2023/08/22 03:43:45;;;;;;;23.48;16.70;;;;;;;;;;5114648;28;20024;-53
2023/08/22 03:46:11;;;;;;;19.52;17.38;;;;;;;;;;5096430;28;20376;-53
2023/08/22 03:48:37;;;;;;;18.38;16.58;;;;;;;;;;5114042;28;20104;-56
2023/08/22 03:51:06;;;;;;;17.67;15.88;;;;;;;;;;5115291;28;20035;-54
2023/08/22 03:53:34;;;;;;;18.80;16.80;;;;;;;;;;5115026;28;20028;-52
2023/08/22 03:56:01;;;;;;;23.40;15.88;;;;;;;;;;5115500;28;20107;-53
2023/08/22 03:58:27;;;;;;;20.08;16.33;;;;;;;;;;5096148;28;20039;-53
2023/08/22 04:01:01;;;;;;;18.77;16.45;;;;;;;;;;5115206;28;20528;-53
2023/08/22 04:03:28;;;;;;;18.45;15.93;;;;;;;;;;5114974;28;20031;-56
2023/08/22 04:05:54;;;;;;;17.98;15.82;;;;;;;;;;5115392;28;20028;-53
2023/08/22 04:08:20;;;;;;;18.70;15.45;;;;;;;;;;5115077;28;20024;-53
2023/08/22 04:10:46;;;;;;;21.30;15.80;;;;;;;;;;5114769;28;20114;-56
2023/08/22 04:13:12;;;;;;;22.63;16.67;;;;;;;;;;5114797;28;20077;-55
2023/08/22 04:15:39;;;;;;;18.15;16.25;;;;;;;;;;5115031;28;20027;-53
2023/08/22 04:18:06;;;;;;;19.23;16.65;;;;;;;;;;5114426;28;20028;-55
2023/08/22 04:20:32;;;;;;;20.45;17.25;;;;;;;;;;5105668;28;20395;-54
2023/08/22 04:22:58;;;;;;;19.65;16.70;;;;;;;;;;5103872;28;20035;-56
2023/08/22 04:25:24;;;;;;;19.92;16.90;;;;;;;;;;5103135;28;20019;-55
2023/08/22 04:27:50;;;;;;;18.35;16.45;;;;;;;;;;5104888;28;20031;-53
2023/08/22 04:30:16;;;;;;;17.63;15.85;;;;;;;;;;5096842;28;20023;-54
2023/08/22 04:32:42;;;;;;;17.55;15.85;;;;;;;;;;5094047;28;20098;-55
2023/08/22 04:35:08;;;;;;;23.25;17.67;;;;;;;;;;5094025;28;20028;-53
2023/08/22 04:37:35;;;;;;;17.67;15.57;;;;;;;;;;5096986;28;20107;-56
2023/08/22 04:40:01;;;;;;;18.08;15.85;;;;;;;;;;5106965;28;20047;-56
2023/08/22 04:42:27;;;;;;;20.35;16.40;;;;;;;;;;5071421;28;20055;-53
2023/08/22 04:44:53;;;;;;;17.98;16.38;;;;;;;;;;5103217;28;20031;-52
2023/08/22 04:47:19;;;;;;;17.42;15.63;;;24.40;99.90;;;;;;5100110;28;20032;-56
2023/08/22 04:49:45;;;;;;;29.02;15.75;;;24.40;99.90;;;;;;5101135;28;20046;-53
2023/08/22 04:52:11;;;;;;;18.25;16.33;;;24.40;99.90;;;;;;5114441;28;20032;-53
2023/08/22 04:54:37;;;;;;;18.55;16.13;;;24.50;99.90;;;;;;5113851;28;20535;-55
2023/08/22 04:57:03;;;;;;;18.10;16.20;;;24.50;99.90;;;;;;5114130;28;20026;-56
2023/08/22 04:59:28;;;;;;;20.13;16.15;;;24.50;99.90;;;;;;5113587;28;20394;-53
2023/08/22 05:01:54;;;;;;;18.50;16.60;;;24.50;99.90;;;;;;5113331;28;20084;-53
2023/08/22 05:04:20;;;;;;;16.85;15.05;;;24.60;99.90;;;;;;5113882;28;20036;-55
2023/08/22 05:06:46;;;;;;;21.33;16.38;;;24.60;99.90;;;;;;5113798;28;20497;-52
2023/08/22 05:09:15;;;;;;;19.70;17.08;;;24.60;99.90;;;;;;5044639;28;20087;-53
2023/08/22 05:11:41;;;;;;;30.58;17.38;;;24.60;99.90;;;;;;5113879;28;20076;-54
2023/08/22 05:14:08;;;;;;;23.17;16.08;;;24.70;99.90;;;;;;5090971;28;20508;-53
2023/08/22 05:16:34;;;;;;;17.50;15.75;;;24.90;99.90;;;;;;5093483;28;20028;-54
2023/08/22 05:19:00;;;;;;;17.90;15.55;;;24.80;99.90;;;;;;5093536;28;20028;-56
2023/08/22 05:21:26;;;;;;;17.90;15.73;;;25.00;99.90;;;;;;5107964;28;20031;-55
2023/08/22 05:23:51;;;;;;;18.63;16.65;;;24.90;99.90;;;;;;5085890;28;20043;-54
2023/08/22 05:26:17;;;;;;;19.10;17.05;;;25.00;99.90;;;;;;5093641;28;20062;-56
2023/08/22 05:28:43;;;;;;;17.92;15.50;;;;;;;;;;5102388;28;20034;-52
2023/08/22 05:31:10;;;;;;;20.02;15.00;;;;;;;;;;5101890;28;20034;-56
2023/08/22 05:33:36;;;;;;;17.23;15.52;;;;;;;;;;5111145;28;20020;-55
2023/08/22 05:36:02;;;;;;;17.92;14.95;;;;;;;;;;5102002;28;20039;-56
2023/08/22 05:38:28;;;;;;;20.23;14.93;;;;;;;;;;5112707;28;20030;-55
2023/08/22 05:40:54;;;;;;;20.52;15.23;;;;;;;;;;5113300;28;20028;-54
2023/08/22 05:43:20;;;;;;;17.50;15.70;;;;;;;;;;5113495;28;20035;-53
2023/08/22 05:45:46;;;;;;;19.80;15.40;;;;;;;;;;5094557;28;20040;-53
2023/08/22 05:48:12;;;;;;;18.08;15.20;;;25.70;99.90;;;;;;5093754;28;20049;-54
2023/08/22 05:50:38;;;;;;;17.25;15.45;;;25.70;99.90;;;;;;5107574;28;20454;-54
2023/08/22 05:53:03;;;;;;;19.65;16.15;;;25.60;99.90;;;;;;5104293;28;20034;-53
2023/08/22 05:55:31;;;;;;;20.63;15.70;;;25.70;99.90;;;;;;5102105;28;20023;-56
2023/08/22 05:57:56;;;;;;;22.67;18.15;;;25.80;99.90;;;;;;5102204;28;20095;-53
2023/08/22 06:00:22;;;;;;;18.00;14.57;;;25.70;99.90;;;;;;5113230;28;20028;-56
2023/08/22 06:02:48;;;;;;;21.73;15.57;;;25.80;99.90;;;;;;5113168;28;20023;-53
2023/08/22 06:05:14;;;;;;;19.00;14.90;;;25.90;99.90;;;;;;5094489;28;20039;-53
2023/08/22 06:07:39;;;;;;;16.88;14.68;;;25.90;99.90;;;;;;5060677;28;20040;-53
2023/08/22 06:10:06;;;;;;;15.70;14.02;;;26.10;99.90;;;;;;5100699;28;20069;-52
2023/08/22 06:12:31;;;;;;;16.88;14.75;;;26.00;99.90;;;;;;5092842;28;20044;-52
2023/08/22 06:14:57;;;;;;;15.98;14.27;;;26.20;99.90;;;;;;5094902;28;20161;-54
2023/08/22 06:17:23;;;;;;;35.30;20.50;;;26.30;99.90;;;;;;5094887;28;20059;-53
2023/08/22 06:19:49;;;;;;;16.08;14.48;;;26.50;99.90;;;;;;5096500;28;20039;-52
2023/08/22 06:22:14;;;;;;;15.95;13.43;;;26.60;99.90;;;;;;5094844;28;20036;-53
2023/08/22 06:24:40;;;;;;;16.38;14.60;;;26.70;99.90;;;;;;5096222;28;20028;-53
2023/08/22 06:27:06;;;;;;;17.35;15.25;;;26.50;99.90;;;;;;5096804;28;20105;-52
2023/08/22 06:29:32;;;;;;;16.77;14.95;;;26.60;99.90;;;;;;5096562;28;20498;-52
2023/08/22 06:32:00;;;;;;;17.52;14.10;;;26.70;99.90;;;;;;5096336;28;20036;-53
2023/08/22 06:34:26;;;;;;;18.33;15.38;;;26.80;99.90;;;;;;5096450;28;20456;-53
2023/08/22 06:36:52;;;;;;;17.38;14.30;;;26.90;99.90;;;;;;5096312;28;20038;-53
2023/08/22 06:39:19;;;;;;;17.20;14.50;;;27.00;99.90;;;;;;5096511;28;20032;-51
2023/08/22 06:41:44;;;;;;;18.05;13.85;;;27.20;99.90;;;;;;5096300;28;20024;-53
2023/08/22 06:44:10;;;;;;;16.67;15.05;;;27.30;99.90;;;;;;5094296;28;20115;-51
2023/08/22 06:46:37;;;;;;;15.65;14.02;;;;;;;;;;5096122;28;20077;-52
2023/08/22 06:49:03;;;;;;;16.35;14.00;;;27.30;99.90;;;;;;5096365;28;20122;-53
2023/08/22 06:51:29;;;;;;;18.55;14.75;;;27.50;99.90;;;;;;5096015;28;20490;-52
2023/08/22 06:53:55;;;;;;;19.00;14.30;;;27.50;99.90;;;;;;5096005;28;20031;-52
2023/08/22 06:56:20;;;;;;;17.35;14.82;;;27.60;99.90;;;;;;5094399;28;20036;-53
2023/08/22 06:58:46;;;;;;;15.57;13.80;;;27.80;99.90;;;;;;5060390;28;20032;-52
2023/08/22 07:01:13;;;;;;;19.55;15.32;;;27.80;99.90;;;;;;5096308;28;20029;-52
2023/08/22 07:03:39;;;;;;;17.40;14.52;;;27.90;99.90;;;;;;5095984;28;20399;-53
2023/08/22 07:06:05;;;;;;;14.93;13.43;;;28.00;99.90;;;;;;5093992;28;20040;-52
2023/08/22 07:08:31;;;;;;;18.20;14.00;;;;;;;;;;5095664;28;20096;-52
2023/08/22 07:11:02;;;;;;;14.98;13.48;;;28.30;99.90;;;;;;5096116;28;20504;-52
2023/08/22 07:13:28;;;;;;;16.05;14.43;;;28.30;99.90;;;;;;5096113;28;20085;-52
2023/08/22 07:15:54;;;;;;;14.00;12.65;;;28.30;99.90;;;;;;5095677;28;20387;-53
2023/08/22 07:18:20;;;;;;;16.17;14.57;;;;;;;;;;5093353;28;20044;-52
2023/08/22 07:20:46;;;;;;;16.27;13.93;;;28.70;99.90;;;;;;5093437;28;20508;-52
2023/08/22 07:23:12;;;;;;;16.63;15.13;;;28.70;99.90;;;;;;5092926;28;20040;-53
2023/08/22 07:25:40;;;;;;;16.20;14.38;;;;;;;;;;5093382;28;20382;-52
2023/08/22 07:28:07;;;;;;;15.85;14.32;;;;;;;;;;5093214;28;20064;-53
2023/08/22 07:30:33;;;;;;;19.30;15.23;;;;;;;;;;5093146;28;20032;-53
2023/08/22 07:32:59;;;;;;;14.05;12.65;;;;;;;;;;5092983;28;20479;-53
2023/08/22 07:35:27;;;;;;;16.67;15.07;;;29.30;99.90;;;;;;5094043;28;20030;-53
2023/08/22 07:37:53;;;;;;;16.85;13.35;;;29.30;99.90;;;;;;5113683;28;20047;-51
2023/08/22 07:40:19;;;;;;;16.58;13.77;;;29.50;99.90;;;;;;5113183;28;20433;-53
2023/08/22 07:42:44;;;;;;;19.45;13.45;;;29.60;99.90;;;;;;5113311;28;20050;-52
2023/08/22 07:45:10;;;;;;;16.85;13.30;;;29.80;99.90;;;;;;5098343;28;20463;-54
2023/08/22 07:47:36;;;;;;;15.13;12.70;;;29.80;99.90;;;;;;5092851;28;20032;-54
2023/08/22 07:50:03;;;;;;;16.17;13.35;;;29.80;99.90;;;;;;5094429;28;20396;-53
2023/08/22 07:52:30;;;;;;;13.50;12.10;;;29.80;99.90;;;;;;5076198;28;20040;-54
2023/08/22 07:54:56;;;;;;;14.27;12.88;;;29.90;99.90;;;;;;5095003;28;20115;-53
2023/08/22 07:57:21;;;;;;;15.80;14.02;;;30.00;99.90;;;;;;5092806;28;20173;-52
2023/08/22 07:59:48;;;;;;;13.93;12.32;;;;;;;;;;5092966;28;20090;-52
2023/08/22 08:02:14;;;;;;;16.13;11.77;;;;;;;;;;5094555;28;20468;-53
2023/08/22 08:04:40;;;;;;;14.93;13.43;;;;;;;;;;5095109;28;20077;-53
2023/08/22 08:07:06;;;;;;;12.65;11.55;;;;;;;;;;5094388;28;20032;-52
2023/08/22 08:09:34;;;;;;;15.15;11.95;;;;;;;;;;5094206;28;20035;-53
2023/08/22 08:12:00;;;;;;;14.13;12.35;;;;;;;;;;5092637;28;20050;-52
2023/08/22 08:14:26;;;;;;;14.70;11.45;;;;;;;;;;5094367;28;20031;-52
2023/08/22 08:16:52;;;;;;;13.07;11.13;;;31.10;99.90;;;;;;5092539;28;20044;-53
2023/08/22 08:19:18;;;;;;;12.38;11.13;;;;;;;;;;5094040;28;20383;-54
2023/08/22 08:21:44;;;;;;;12.35;11.25;;;31.60;99.90;;;;;;5092401;28;20068;-54
2023/08/22 08:24:11;;;;;;;15.48;12.63;;;31.50;99.90;;;;;;5094625;28;20059;-53
2023/08/22 08:26:37;;;;;;;12.98;11.70;;;31.70;99.90;;;;;;5106070;28;20032;-53
2023/08/22 08:29:03;;;;;;;10.73;9.73;;;31.90;99.90;;;;;;5114466;28;20032;-52
2023/08/22 08:31:29;;;;;;;11.80;9.80;;;;;;;;;;5114349;28;20023;-52
2023/08/22 08:33:55;;;;;;;11.73;10.63;;;;;;;;;;5112477;28;20032;-53
2023/08/22 08:36:22;;;;;;;11.88;10.57;;;;;;;;;;5114039;28;20021;-53
2023/08/22 08:38:48;;;;;;;13.52;12.15;;;;;;;;;;5114365;28;20035;-52
2023/08/22 08:41:14;;;;;;;11.73;10.57;;;;;;;;;;5114081;28;20100;-52
2023/08/22 08:43:41;;;;;;;12.55;10.32;;;;;;;;;;5114243;28;20126;-54
2023/08/22 08:46:07;;;;;;;13.05;10.90;;;;;;;;;;5095326;28;20039;-54
2023/08/22 08:48:34;;;;;;;18.73;11.75;;;;;;;;;;5098488;28;20407;-54
2023/08/22 08:51:02;;;;;;;11.85;10.65;;;32.90;99.90;;;;;;5114042;28;20042;-52
2023/08/22 08:53:29;;;;;;;11.85;10.68;;;33.10;99.90;;;;;;5078426;28;20390;-52
2023/08/22 08:55:55;;;;;;;12.25;10.85;;;33.20;99.90;;;;;;5114625;28;20031;-52
2023/08/22 08:58:20;;;;;;;14.43;10.77;;;33.30;99.90;;;;;;5095041;28;20040;-51
2023/08/22 09:00:46;;;;;;;15.98;10.23;;;33.50;99.90;;;;;;5112669;28;20044;-52
2023/08/22 09:03:12;;;;;;;17.20;11.00;;;33.40;99.90;;;;;;5113958;28;20027;-53
2023/08/22 09:05:38;;;;;;;16.30;10.82;;;33.30;99.90;;;;;;5094334;28;20140;-52
2023/08/22 09:08:20;;;;;;;17.25;11.18;;;;;;;;;;5109501;28;20035;-52
2023/08/22 09:10:53;;;;;;;11.32;10.13;;;33.80;99.90;;;;;;5098767;28;20380;-53
2023/08/22 09:13:26;;;;;;;15.00;10.40;;;33.50;99.90;;;;;;5101211;28;20352;-53
2023/08/22 09:15:58;;;;;;;15.63;10.45;;;33.50;99.90;;;;;;5099714;28;20032;-53
2023/08/22 09:18:23;;;;;;;11.02;9.77;;;34.00;99.90;;;;;;5104376;28;20028;-52
2023/08/22 09:20:49;;;;;;;19.15;9.98;;;34.00;99.90;;;;;;5098980;28;20172;-51
2023/08/22 09:23:28;;;;;;;13.73;9.80;;;;;;;;;;5105724;28;20024;-52
2023/08/22 09:25:55;;;;;;;11.70;9.48;;;;;;;;;;5100845;28;20031;-53
2023/08/22 09:28:21;;;;;;;12.30;9.18;;;;;;;;;;5103098;28;20024;-52
2023/08/22 09:30:48;;;;;;;14.60;10.48;;;;;;;;;;5105276;28;20034;-52
2023/08/22 09:33:14;;;;;;;12.88;10.77;;;34.90;99.90;;;;;;5113363;28;20040;-53
2023/08/22 09:35:40;;;;;;;11.35;9.93;;;;;;;;;;5104368;28;20019;-51
2023/08/22 09:38:07;;;;;;;10.52;9.35;;;;;;;;;;5103493;28;20093;-53
2023/08/22 09:40:33;;;;;;;10.70;9.45;;;34.90;99.90;;;;;;5093353;28;20051;-54
2023/08/22 09:43:01;;;;;;;9.57;8.70;;;35.10;99.90;;;;;;5095830;28;20043;-52
2023/08/22 09:45:28;;;;;;;12.45;9.18;;;35.50;99.90;;;;;;5100842;28;20035;-51
2023/08/22 09:47:57;;;;;;;10.85;9.75;;;;;;;;;;5106021;28;20079;-52
2023/08/22 09:50:26;;;;;;;11.85;9.80;;;;;;;;;;5099714;28;20039;-53
2023/08/22 09:52:52;;;;;;;11.55;9.75;;;;;;;;;;5097380;28;20494;-52
2023/08/22 09:55:18;;;;;;;12.02;9.02;;;;;;;;;;5097330;28;20024;-53
2023/08/22 09:57:45;;;;;;;11.30;9.45;;;;;;;;;;5112236;28;20036;-52
2023/08/22 10:00:12;;;;;;;12.45;9.77;;;;;;;;;;5109658;28;20038;-51
2023/08/22 10:02:39;;;;;;;13.18;9.82;;;;;;;;;;5078772;28;20040;-52
2023/08/22 10:05:06;;;;;;;15.52;9.63;;;;;;;;;;5105603;28;20429;-52
2023/08/22 10:07:32;;;;;;;12.52;8.55;;;;;;;;;;5061712;28;20104;-51
2023/08/22 10:09:58;;;;;;;9.65;8.63;;;;;;;;;;5101203;28;20111;-53
2023/08/22 10:12:25;;;;;;;10.68;8.88;;;;;;;;;;5113903;28;20471;-52
2023/08/22 10:14:56;;;;;;;13.13;9.70;;;;;;;;;;5108048;28;20020;-52
2023/08/22 10:17:25;;;;;;;11.20;9.85;;;;;;;;;;5108702;28;20047;-51
2023/08/22 10:19:51;;;;;;;13.88;9.25;;;37.50;99.90;;;;;;5106093;28;20043;-52
2023/08/22 10:22:18;;;;;;;10.43;9.27;;;;;;;;;;5087413;28;20041;-52
2023/08/22 10:24:48;;;;;;;9.65;8.65;;;37.90;99.90;;;;;;5087568;28;20158;-52
2023/08/22 10:27:16;;;;;;;10.60;9.60;;;;;;;;;;5084612;28;20036;-51
2023/08/22 10:29:50;;;;;;;9.75;8.75;;;36.80;99.90;;;;;;5082984;28;20423;-52
2023/08/22 10:32:18;;;;;;;13.52;9.90;;;;;;;;;;5083912;28;20072;-53
2023/08/22 10:34:43;;;;;;;14.48;9.70;;;37.80;99.90;;;;;;5085169;28;20031;-52
2023/08/22 10:37:12;;;;;;;9.65;8.65;;;;;;;;;;5056991;28;20041;-52
2023/08/22 10:39:39;;;;;;;9.95;8.90;;;;;;;;;;5088976;28;20043;-53
2023/08/22 10:42:06;;;;;;;15.65;8.82;;;;;;;;;;5087672;28;20093;-52
2023/08/22 10:44:32;;;;;;;9.95;8.95;;;;;;;;;;5094071;28;20079;-53
2023/08/22 10:47:04;;;;;;;10.80;8.38;;;38.40;99.50;;;;;;5093730;28;20479;-52
2023/08/22 10:49:37;;;;;;;12.60;9.40;;;38.70;99.90;;;;;;5028590;28;20060;-52
2023/08/22 10:52:10;;;;;;;9.38;8.48;;;38.60;99.90;;;;;;5093980;28;20024;-51
2023/08/22 10:55:10;;;;;;;10.52;8.52;;;38.30;99.30;;;;;;5116737;28;20027;-51
2023/08/22 10:57:38;;;;;;;9.38;8.57;;;37.90;99.40;;;;;;5115589;28;20034;-52
2023/08/22 11:00:19;;;;;;;10.13;8.88;;;38.40;99.40;;;;;;5116460;28;20413;-52
2023/08/22 11:02:49;;;;;;;10.85;9.20;;;;;;;;;;5114275;28;20562;-52
2023/08/22 11:05:15;;;;;;;10.50;8.73;;;;;;;;;;5113743;28;20433;-52
2023/08/22 11:07:46;;;;;;;9.70;8.65;;;39.10;99.90;;;;;;5116290;28;20028;-52
2023/08/22 11:10:25;;;;;;;11.13;8.38;;;39.30;99.90;;;;;;5115841;28;20063;-52
2023/08/22 11:12:55;;;;;;;9.50;8.50;;;39.40;98.10;;;;;;5116057;28;20039;-52
2023/08/22 11:15:21;;;;;;;11.33;8.70;;;39.00;99.00;;;;;;5116217;27;20101;-52
2023/08/22 11:17:47;;;;;;;10.55;8.70;;;39.30;98.40;;;;;;5116391;28;20493;-52
2023/08/22 11:20:15;;;;;;;14.40;9.45;;;39.20;98.50;;;;;;5096702;28;20039;-52
2023/08/22 11:22:42;;;;;;;10.48;9.20;;;38.80;97.80;;;;;;5116055;28;20028;-52
2023/08/22 11:25:09;;;;;;;9.93;8.82;;;39.00;98.00;;;;;;5116149;28;20376;-52
2023/08/22 11:27:39;;;;;;;11.60;9.23;;;39.20;98.70;;;;;;5111408;28;20020;-52
2023/08/22 11:30:06;;;;;;;9.43;7.97;;;39.30;98.00;;;;;;5115128;28;20032;-52
2023/08/22 11:32:33;;;;;;;10.25;8.00;;;;;;;;;;5072854;28;20033;-52
2023/08/22 11:35:04;;;;;;;10.77;7.47;;;;;;;;;;5072816;28;20079;-52
2023/08/22 11:37:37;;;;;;;10.88;7.53;;;38.40;96.80;;;;;;5072264;28;20068;-53
2023/08/22 11:40:05;;;;;;;8.48;7.63;;;38.60;97.00;;;;;;5072397;28;20076;-52
2023/08/22 11:42:33;;;;;;;9.02;7.78;;;;;;;;;;5039595;28;20040;-53
2023/08/22 11:45:08;;;;;;;9.35;7.65;;;39.40;99.90;;;;;;5069156;28;20094;-52
2023/08/22 11:47:47;;;;;;;11.45;7.65;;;39.60;96.60;;;;;;5045957;28;20037;-51
2023/08/22 11:50:20;;;;;;;9.85;8.77;;;38.80;96.80;;;;;;5052717;28;20041;-55
2023/08/22 11:52:54;;;;;;;8.38;7.55;;;38.80;96.90;;;;;;5063741;28;20082;-53
2023/08/22 11:55:25;;;;;;;8.60;7.80;;;38.70;97.50;;;;;;5068737;28;20029;-54
2023/08/22 11:57:55;;;;;;;9.57;8.02;;;39.10;97.50;;;;;;5070228;28;20048;-54
2023/08/22 12:00:21;;;;;;;10.15;7.43;;;38.80;96.80;;;;;;5069910;28;20068;-53
2023/08/22 12:02:50;;;;;;;8.50;7.55;;;39.20;97.10;;;;;;5070619;28;20044;-54
2023/08/22 12:05:36;;;;;;;8.52;7.05;;;38.80;96.70;;;;;;5072084;28;20024;-53
2023/08/22 12:08:10;;;;;;;11.77;7.88;;;39.20;96.70;;;;;;5051507;28;20071;-53
2023/08/22 12:10:42;;;;;;;8.82;7.57;;;38.70;96.60;;;;;;5072949;28;20044;-52
2023/08/22 12:13:09;;;;;;;9.77;7.00;;;39.10;96.80;;;;;;5080566;28;20620;-52
2023/08/22 12:15:35;;;;;;;7.60;6.53;;;39.00;96.30;;;;;;5081503;28;20153;-53
2023/08/22 12:18:04;;;;;;;8.23;6.60;;;39.30;95.80;;;;;;5082311;28;20036;-53
2023/08/22 12:20:33;;;;;;;9.82;6.93;;;39.60;96.90;;;;;;5080575;28;20471;-52
2023/08/22 12:22:58;;;;;;;11.73;6.80;;;39.90;97.20;;;;;;5073061;28;20480;-53
2023/08/22 12:25:24;;;;;;;8.70;7.05;;;39.60;95.60;;;;;;5071964;28;20032;-53
2023/08/22 12:27:50;;;;;;;7.20;6.50;;;39.70;95.90;;;;;;5071812;28;20069;-53
2023/08/22 12:30:16;;;;;;;9.10;6.85;;;39.60;95.70;;;;;;5071785;28;20530;-53
2023/08/22 12:32:44;;;;;;;6.53;5.93;;;39.10;94.80;;;;;;5071456;28;20068;-53
2023/08/22 12:35:12;;;;;;;11.73;6.95;;;39.10;95.20;;;;;;5071826;28;20090;-53
2023/08/22 12:37:39;;;;;;;9.55;6.88;;;39.50;96.20;;;;;;5071603;28;20553;-53
2023/08/22 12:40:10;;;;;;;8.88;6.85;;;39.20;94.80;;;;;;5071543;28;20068;-53
2023/08/22 12:42:39;;;;;;;7.72;6.95;;;39.00;95.70;;;;;;5071622;28;20032;-53
2023/08/22 12:45:07;;;;;;;7.60;6.82;;;39.10;94.90;;;;;;5079463;28;20047;-53
2023/08/22 12:47:33;;;;;;;7.35;6.63;;;39.50;95.50;;;;;;5093054;28;20039;-52
2023/08/22 12:49:59;;;;;;;8.70;7.00;;;39.70;95.60;;;;;;5111270;28;20562;-53
2023/08/22 12:52:25;;;;;;;9.27;7.07;;;39.60;94.70;;;;;;5114379;28;20031;-53
2023/08/22 12:54:50;;;;;;;7.75;6.70;;;40.20;95.00;;;;;;5113867;28;20050;-54
2023/08/22 12:57:16;;;;;;;7.85;6.93;;;40.30;94.80;;;;;;5114100;28;20050;-54
2023/08/22 12:59:42;;;;;;;9.98;7.10;;;40.60;94.70;;;;;;5114152;28;20036;-53
2023/08/22 13:02:07;;;;;;;7.05;6.45;;;40.10;94.60;;;;;;5114161;28;20100;-53